createdAt,value
2017-09-19T00:00:25.835Z,93.80
2017-09-19T00:03:29.261Z,93.90
2017-09-19T00:06:31.190Z,93.90
2017-09-19T00:09:33.559Z,93.90
2017-09-19T00:12:35.494Z,93.90
2017-09-19T00:15:37.765Z,93.90
2017-09-19T00:18:39.694Z,94.00
2017-09-19T00:21:42.162Z,94.00
2017-09-19T00:24:44.086Z,94.10
2017-09-19T00:27:47.192Z,94.20
2017-09-19T00:30:49.137Z,94.20
2017-09-19T00:33:51.496Z,94.20
2017-09-19T00:36:53.765Z,94.20
2017-09-19T00:39:56.108Z,94.10
2017-09-19T00:42:58.044Z,94.10
2017-09-19T00:46:00.399Z,94.00
2017-09-19T00:49:02.343Z,93.90
2017-09-19T00:52:04.655Z,93.90
2017-09-19T00:55:06.607Z,93.90
2017-09-19T00:58:09.696Z,93.80
2017-09-19T01:01:11.786Z,93.80
2017-09-19T01:04:14.148Z,93.90
2017-09-19T01:07:16.084Z,93.80
2017-09-19T01:10:18.452Z,93.80
2017-09-19T01:13:20.375Z,93.90
2017-09-19T01:16:23.680Z,93.90
2017-09-19T01:19:25.613Z,93.90
2017-09-19T01:22:27.975Z,93.90
2017-09-19T01:25:29.907Z,93.90
2017-09-19T01:28:32.990Z,93.90
2017-09-19T01:31:34.941Z,93.80
2017-09-19T01:34:37.300Z,93.80
2017-09-19T01:37:39.254Z,93.80
2017-09-19T01:40:41.601Z,93.70
2017-09-19T01:43:43.565Z,93.70
2017-09-19T01:46:45.911Z,93.60
2017-09-19T01:49:47.838Z,93.60
2017-09-19T01:52:50.942Z,93.40
2017-09-19T01:55:52.889Z,93.30
2017-09-19T01:58:55.234Z,93.30
2017-09-19T02:01:57.285Z,93.20
2017-09-19T02:04:59.672Z,93.20
2017-09-19T02:08:01.712Z,93.20
2017-09-19T02:11:04.061Z,93.20
2017-09-19T02:14:05.996Z,93.20
2017-09-19T02:17:08.358Z,93.20
2017-09-19T02:20:10.322Z,93.20
2017-09-19T02:23:12.765Z,93.20
2017-09-19T02:26:14.928Z,93.30
2017-09-19T02:29:17.397Z,93.30
2017-09-19T02:32:19.407Z,93.30
2017-09-19T02:35:22.526Z,93.30
2017-09-19T02:38:24.460Z,93.20
2017-09-19T02:41:26.812Z,93.30
2017-09-19T02:44:28.745Z,93.30
2017-09-19T02:47:31.788Z,93.20
2017-09-19T02:50:33.803Z,93.20
2017-09-19T02:53:36.147Z,93.30
2017-09-19T02:56:38.084Z,93.20
2017-09-19T02:59:40.374Z,93.20
2017-09-19T03:02:42.341Z,93.20
2017-09-19T03:05:44.654Z,93.20
2017-09-19T03:08:47.513Z,93.50
2017-09-19T03:11:49.866Z,93.30
2017-09-19T03:14:51.827Z,93.30
2017-09-19T03:17:54.198Z,93.30
2017-09-19T03:20:56.211Z,93.30
2017-09-19T03:23:59.410Z,93.50
2017-09-19T03:27:01.348Z,93.50
2017-09-19T03:30:03.729Z,93.50
2017-09-19T03:33:05.676Z,93.60
2017-09-19T03:36:08.029Z,93.60
2017-09-19T03:39:09.972Z,93.60
2017-09-19T03:42:12.441Z,93.60
2017-09-19T03:45:14.372Z,93.70
2017-09-19T03:48:16.742Z,93.80
2017-09-19T03:51:18.662Z,93.80
2017-09-19T03:54:21.801Z,93.90
2017-09-19T03:57:23.816Z,93.90
2017-09-19T04:00:26.168Z,93.90
2017-09-19T04:03:28.086Z,93.90
2017-09-19T04:06:31.200Z,93.90
2017-09-19T04:09:33.140Z,93.90
2017-09-19T04:12:35.498Z,93.90
2017-09-19T04:15:37.421Z,93.90
2017-09-19T04:18:40.529Z,94.00
2017-09-19T04:21:42.562Z,94.00
2017-09-19T04:24:44.887Z,94.00
2017-09-19T04:27:47.596Z,94.30
2017-09-19T04:30:49.938Z,94.00
2017-09-19T04:33:51.897Z,94.00
2017-09-19T04:36:54.173Z,94.00
2017-09-19T04:39:56.097Z,94.00
2017-09-19T04:42:58.443Z,94.00
2017-09-19T04:46:00.405Z,94.00
2017-09-19T04:49:02.750Z,94.00
2017-09-19T04:52:04.698Z,94.00
2017-09-19T04:55:07.064Z,94.00
2017-09-19T04:58:09.013Z,94.00
2017-09-19T05:01:11.291Z,94.00
2017-09-19T05:04:13.324Z,94.00
2017-09-19T05:07:15.663Z,94.00
2017-09-19T05:10:17.622Z,94.00
2017-09-19T05:13:20.099Z,94.00
2017-09-19T05:16:22.157Z,94.00
2017-09-19T05:19:24.445Z,93.90
2017-09-19T05:22:26.384Z,93.90
2017-09-19T05:25:30.230Z,93.90
2017-09-19T05:28:32.209Z,93.90
2017-09-19T05:31:34.557Z,93.90
2017-09-19T05:34:36.589Z,93.90
2017-09-19T05:37:38.895Z,93.90
2017-09-19T05:40:40.832Z,93.90
2017-09-19T05:43:43.142Z,93.90
2017-09-19T05:46:45.072Z,94.00
2017-09-19T05:49:48.113Z,94.00
2017-09-19T05:52:50.034Z,94.00
2017-09-19T05:55:52.382Z,93.90
2017-09-19T05:58:54.301Z,93.90
2017-09-19T06:01:56.691Z,93.90
2017-09-19T06:04:58.624Z,93.90
2017-09-19T06:08:00.903Z,93.30
2017-09-19T06:11:03.034Z,93.20
2017-09-19T06:14:05.415Z,93.00
2017-09-19T06:17:07.371Z,92.90
2017-09-19T06:20:09.698Z,92.70
2017-09-19T06:23:11.639Z,92.60
2017-09-19T06:26:14.014Z,92.50
2017-09-19T06:29:15.988Z,92.30
2017-09-19T06:32:18.311Z,92.10
2017-09-19T06:35:20.250Z,91.80
2017-09-19T06:38:22.618Z,91.90
2017-09-19T06:41:24.545Z,91.20
2017-09-19T06:44:26.934Z,90.60
2017-09-19T06:47:28.862Z,90.10
2017-09-19T06:50:31.161Z,89.70
2017-09-19T06:53:33.197Z,88.60
2017-09-19T06:56:35.540Z,87.60
2017-09-19T06:59:38.488Z,87.20
2017-09-19T07:02:40.857Z,85.10
2017-09-19T07:05:42.816Z,82.30
2017-09-19T07:08:45.168Z,81.00
2017-09-19T07:11:47.123Z,79.80
2017-09-19T07:14:49.955Z,79.10
2017-09-19T07:17:52.051Z,79.30
2017-09-19T07:20:54.424Z,80.00
2017-09-19T07:23:56.362Z,80.40
2017-09-19T07:26:59.404Z,81.00
2017-09-19T07:30:01.565Z,81.50
2017-09-19T07:33:03.884Z,80.80
2017-09-19T07:36:06.598Z,80.30
2017-09-19T07:39:08.948Z,80.20
2017-09-19T07:42:11.436Z,80.70
2017-09-19T07:45:13.766Z,80.00
2017-09-19T07:48:15.807Z,78.20
2017-09-19T07:51:18.174Z,76.30
2017-09-19T07:54:20.103Z,73.80
2017-09-19T07:57:22.474Z,71.00
2017-09-19T08:00:24.625Z,66.50
2017-09-19T08:03:26.970Z,62.00
2017-09-19T08:06:28.936Z,58.90
2017-09-19T08:09:31.267Z,60.00
2017-09-19T08:12:34.058Z,62.10
2017-09-19T08:15:36.398Z,62.10
2017-09-19T08:18:38.354Z,61.60
2017-09-19T08:21:40.719Z,61.60
2017-09-19T08:24:42.653Z,60.10
2017-09-19T08:27:45.021Z,59.10
2017-09-19T08:30:47.048Z,56.00
2017-09-19T08:33:50.162Z,55.70
2017-09-19T08:36:52.220Z,55.70
2017-09-19T08:39:54.551Z,56.20
2017-09-19T08:42:56.532Z,58.50
2017-09-19T08:45:58.860Z,59.20
2017-09-19T08:49:00.834Z,60.90
2017-09-19T08:52:03.174Z,60.30
2017-09-19T08:55:05.110Z,58.80
2017-09-19T08:58:07.474Z,58.00
2017-09-19T09:01:09.423Z,57.80
2017-09-19T09:04:11.771Z,57.00
2017-09-19T09:07:13.734Z,56.10
2017-09-19T09:10:16.083Z,56.50
2017-09-19T09:13:18.023Z,55.50
2017-09-19T09:16:20.399Z,50.80
2017-09-19T09:19:22.431Z,46.30
2017-09-19T09:22:24.732Z,42.00
2017-09-19T09:25:26.759Z,40.50
2017-09-19T09:28:29.100Z,39.60
2017-09-19T09:31:31.033Z,38.10
2017-09-19T09:34:33.511Z,36.10
2017-09-19T09:37:35.458Z,34.50
2017-09-19T09:40:37.817Z,34.20
2017-09-19T09:43:39.768Z,34.40
2017-09-19T09:46:42.138Z,34.50
2017-09-19T09:49:44.178Z,32.90
2017-09-19T09:52:47.348Z,31.70
2017-09-19T09:55:49.297Z,31.00
2017-09-19T09:58:51.677Z,30.80
2017-09-19T10:01:53.639Z,33.30
2017-09-19T10:04:55.979Z,36.30
2017-09-19T10:07:58.030Z,38.60
2017-09-19T10:11:00.389Z,41.00
2017-09-19T10:14:02.427Z,39.50
2017-09-19T10:17:04.788Z,36.00
2017-09-19T10:20:06.755Z,33.30
2017-09-19T10:23:09.101Z,32.40
2017-09-19T10:26:11.130Z,32.40
2017-09-19T10:29:13.441Z,34.10
2017-09-19T10:32:15.383Z,36.10
2017-09-19T10:35:17.831Z,36.90
2017-09-19T10:38:19.790Z,38.20
2017-09-19T10:41:22.163Z,37.30
2017-09-19T10:44:24.182Z,36.90
2017-09-19T10:47:26.561Z,36.40
2017-09-19T10:50:29.519Z,33.40
2017-09-19T10:53:31.872Z,33.30
2017-09-19T10:56:33.949Z,32.00
2017-09-19T10:59:36.273Z,30.50
2017-09-19T11:02:38.199Z,30.00
2017-09-19T11:05:42.109Z,30.90
2017-09-19T11:08:44.061Z,30.90
2017-09-19T11:11:46.441Z,31.20
2017-09-19T11:14:48.376Z,32.90
2017-09-19T11:17:50.726Z,35.00
2017-09-19T11:20:52.678Z,35.30
2017-09-19T11:23:55.052Z,37.10
2017-09-19T11:26:57.098Z,40.00
2017-09-19T11:29:59.461Z,41.60
2017-09-19T11:33:01.409Z,43.30
2017-09-19T11:36:03.671Z,43.90
2017-09-19T11:39:05.691Z,40.50
2017-09-19T11:42:07.987Z,36.10
2017-09-19T11:45:09.936Z,32.20
2017-09-19T11:48:12.263Z,28.90
2017-09-19T11:51:14.851Z,27.90
2017-09-19T11:54:17.234Z,26.10
2017-09-19T11:57:20.635Z,25.50
2017-09-19T12:00:23.024Z,24.90
2017-09-19T12:03:25.056Z,25.10
2017-09-19T12:06:27.424Z,26.50
2017-09-19T12:09:29.380Z,28.60
2017-09-19T12:12:31.728Z,27.90
2017-09-19T12:15:33.771Z,27.40
2017-09-19T12:18:36.140Z,26.40
2017-09-19T12:21:38.186Z,25.10
2017-09-19T12:24:40.563Z,24.60
2017-09-19T12:27:42.686Z,23.90
2017-09-19T12:30:45.065Z,23.90
2017-09-19T12:33:47.090Z,23.70
2017-09-19T12:36:49.499Z,23.30
2017-09-19T12:39:51.522Z,23.20
2017-09-19T12:42:53.860Z,23.70
2017-09-19T12:45:55.813Z,25.00
2017-09-19T12:48:58.181Z,27.40
2017-09-19T12:52:00.139Z,30.90
2017-09-19T12:55:02.497Z,35.10
2017-09-19T12:58:04.429Z,36.90
2017-09-19T13:01:06.892Z,34.50
2017-09-19T13:04:08.833Z,31.10
2017-09-19T13:07:11.218Z,28.60
2017-09-19T13:10:13.369Z,26.30
2017-09-19T13:13:15.711Z,25.00
2017-09-19T13:16:17.669Z,24.60
2017-09-19T13:19:20.007Z,23.70
2017-09-19T13:22:22.001Z,23.90
2017-09-19T13:25:24.425Z,24.80
2017-09-19T13:28:26.490Z,26.30
2017-09-19T13:31:40.824Z,26.30
2017-09-19T13:34:42.766Z,26.90
2017-09-19T13:37:45.124Z,27.80
2017-09-19T13:40:47.070Z,27.30
2017-09-19T13:43:49.419Z,27.80
2017-09-19T13:46:51.373Z,27.80
2017-09-19T13:49:53.975Z,27.30
2017-09-19T13:52:55.985Z,26.70
2017-09-19T13:55:58.945Z,26.30
2017-09-19T13:59:00.917Z,26.20
2017-09-19T14:02:03.327Z,26.90
2017-09-19T14:05:06.324Z,28.80
2017-09-19T14:08:08.803Z,28.80
2017-09-19T14:11:10.843Z,29.80
2017-09-19T14:14:13.209Z,30.80
2017-09-19T14:17:15.245Z,32.40
2017-09-19T14:20:17.590Z,33.50
2017-09-19T14:23:19.519Z,33.80
2017-09-19T14:26:22.598Z,35.90
2017-09-19T14:29:24.551Z,35.90
2017-09-19T14:32:26.981Z,36.20
2017-09-19T14:35:28.978Z,36.10
2017-09-19T14:38:31.339Z,35.60
2017-09-19T14:41:33.591Z,34.20
2017-09-19T14:44:35.960Z,33.10
2017-09-19T14:47:37.900Z,32.20
2017-09-19T14:50:40.256Z,32.00
2017-09-19T14:53:42.510Z,31.30
2017-09-19T14:56:44.907Z,31.10
2017-09-19T14:59:48.456Z,32.60
2017-09-19T15:02:50.823Z,32.50
2017-09-19T15:05:52.867Z,34.00
2017-09-19T15:08:55.236Z,36.30
2017-09-19T15:11:57.279Z,39.00
2017-09-19T15:14:59.631Z,41.70
2017-09-19T15:18:01.601Z,44.00
2017-09-19T15:21:03.898Z,45.90
2017-09-19T15:24:06.603Z,49.00
2017-09-19T15:27:08.960Z,49.00
2017-09-19T15:30:10.904Z,50.30
2017-09-19T15:33:13.256Z,51.70
2017-09-19T15:36:15.194Z,52.20
2017-09-19T15:39:20.473Z,53.20
2017-09-19T15:42:22.500Z,54.10
2017-09-19T15:45:24.848Z,55.20
2017-09-19T15:48:26.788Z,55.40
2017-09-19T15:51:29.179Z,56.50
2017-09-19T15:54:31.120Z,57.80
2017-09-19T15:57:33.555Z,58.70
2017-09-19T16:00:36.240Z,60.00
2017-09-19T16:03:38.586Z,60.80
2017-09-19T16:06:40.504Z,62.50
2017-09-19T16:09:43.566Z,66.30
2017-09-19T16:12:46.951Z,66.90
2017-09-19T16:15:50.145Z,68.30
2017-09-19T16:18:52.098Z,68.30
2017-09-19T16:21:54.567Z,68.60
2017-09-19T16:24:56.507Z,69.50
2017-09-19T16:27:59.640Z,70.00
2017-09-19T16:31:01.607Z,70.00
2017-09-19T16:34:04.647Z,70.50
2017-09-19T16:37:06.589Z,70.50
2017-09-19T16:40:08.872Z,71.60
2017-09-19T16:43:10.805Z,72.30
2017-09-19T16:46:13.130Z,72.90
2017-09-19T16:49:16.019Z,73.00
2017-09-19T16:52:18.343Z,73.30
2017-09-19T16:55:20.402Z,74.30
2017-09-19T16:58:22.763Z,74.80
2017-09-19T17:01:24.708Z,74.90
2017-09-19T17:04:27.062Z,75.80
2017-09-19T17:07:29.006Z,76.80
2017-09-19T17:10:31.372Z,77.60
2017-09-19T17:13:33.322Z,78.30
2017-09-19T17:16:35.674Z,79.30
2017-09-19T17:19:37.633Z,79.80
2017-09-19T17:22:40.002Z,80.20
2017-09-19T17:25:41.967Z,80.90
2017-09-19T17:28:45.119Z,82.10
2017-09-19T17:31:47.409Z,82.20
2017-09-19T17:34:49.845Z,82.60
2017-09-19T17:37:51.877Z,83.10
2017-09-19T17:40:54.408Z,83.50
2017-09-19T17:43:56.352Z,83.60
2017-09-19T17:46:59.472Z,83.50
2017-09-19T17:50:01.510Z,83.40
2017-09-19T17:53:03.882Z,83.70
2017-09-19T17:56:05.919Z,83.80
2017-09-19T17:59:08.304Z,83.80
2017-09-19T18:02:11.124Z,84.10
2017-09-19T18:05:13.482Z,84.00
2017-09-19T18:08:15.596Z,84.00
2017-09-19T18:11:18.817Z,84.00
2017-09-19T18:14:20.777Z,83.80
2017-09-19T18:17:23.130Z,83.80
2017-09-19T18:20:25.077Z,83.70
2017-09-19T18:23:27.411Z,83.30
2017-09-19T18:26:30.119Z,83.40
2017-09-19T18:29:32.404Z,83.40
2017-09-19T18:32:34.360Z,82.80
2017-09-19T18:35:37.561Z,82.80
2017-09-19T18:38:39.550Z,82.80
2017-09-19T18:41:41.916Z,82.90
2017-09-19T18:44:43.958Z,83.10
2017-09-19T18:47:46.500Z,83.20
2017-09-19T18:50:48.452Z,83.20
2017-09-19T18:53:50.841Z,82.80
2017-09-19T18:56:52.786Z,83.20
2017-09-19T18:59:55.118Z,83.40
2017-09-19T19:02:57.077Z,83.60
2017-09-19T19:05:59.430Z,83.60
2017-09-19T19:09:01.462Z,84.00
2017-09-19T19:12:03.824Z,84.20
2017-09-19T19:15:05.783Z,84.30
2017-09-19T19:18:08.048Z,84.50
2017-09-19T19:21:10.008Z,84.80
2017-09-19T19:24:12.280Z,85.10
2017-09-19T19:27:14.904Z,85.30
2017-09-19T19:30:17.298Z,85.30
2017-09-19T19:33:19.273Z,85.20
2017-09-19T19:36:21.723Z,85.30
2017-09-19T19:39:23.773Z,85.70
2017-09-19T19:42:26.914Z,86.10
2017-09-19T19:45:28.866Z,86.10
2017-09-19T19:48:31.209Z,86.30
2017-09-19T19:51:33.174Z,86.30
2017-09-19T19:54:35.497Z,86.10
2017-09-19T19:57:37.565Z,86.10
2017-09-19T20:00:39.926Z,86.10
2017-09-19T20:03:41.870Z,85.90
2017-09-19T20:06:44.130Z,86.10
2017-09-19T20:09:46.076Z,86.10
2017-09-19T20:12:48.422Z,86.30
2017-09-19T20:15:50.404Z,86.30
2017-09-19T20:18:52.675Z,86.20
2017-09-19T20:21:54.691Z,86.20
2017-09-19T20:24:57.038Z,86.30
2017-09-19T20:27:58.983Z,86.50
2017-09-19T20:31:01.347Z,86.50
2017-09-19T20:34:03.485Z,86.50
2017-09-19T20:37:05.759Z,86.70
2017-09-19T20:40:07.860Z,86.80
2017-09-19T20:43:10.979Z,87.10
2017-09-19T20:46:14.159Z,87.10
2017-09-19T20:49:16.499Z,87.20
2017-09-19T20:52:18.576Z,87.40
2017-09-19T20:55:20.876Z,87.50
2017-09-19T20:58:23.682Z,88.10
2017-09-19T21:01:26.052Z,88.10
2017-09-19T21:04:28.876Z,88.40
2017-09-19T21:07:31.983Z,88.50
2017-09-19T21:10:33.994Z,88.60
2017-09-19T21:13:37.116Z,88.70
2017-09-19T21:16:39.066Z,88.80
2017-09-19T21:19:41.501Z,89.00
2017-09-19T21:22:43.464Z,89.30
2017-09-19T21:25:45.815Z,89.30
2017-09-19T21:28:47.765Z,89.10
2017-09-19T21:31:50.097Z,88.90
2017-09-19T21:34:53.584Z,89.20
2017-09-19T21:37:56.988Z,89.30
2017-09-19T21:40:58.925Z,89.20
2017-09-19T21:44:01.300Z,89.30
2017-09-19T21:47:03.246Z,89.70
2017-09-19T21:50:05.613Z,90.00
2017-09-19T21:53:07.648Z,90.10
2017-09-19T21:56:10.006Z,90.20
2017-09-19T21:59:12.007Z,90.30
2017-09-19T22:02:14.306Z,90.30
2017-09-19T22:05:16.384Z,90.20
2017-09-19T22:08:18.728Z,90.40
2017-09-19T22:11:20.742Z,90.40
2017-09-19T22:14:23.848Z,90.50
2017-09-19T22:17:25.785Z,90.50
2017-09-19T22:20:28.163Z,90.60
2017-09-19T22:23:30.111Z,90.50
2017-09-19T22:26:32.452Z,90.60
2017-09-19T22:29:34.419Z,90.70
2017-09-19T22:32:37.502Z,90.70
2017-09-19T22:35:39.478Z,90.80
2017-09-19T22:38:41.819Z,90.90
2017-09-19T22:41:43.786Z,90.80
2017-09-19T22:44:46.113Z,90.80
2017-09-19T22:47:48.042Z,90.90
2017-09-19T22:50:50.394Z,90.90
2017-09-19T22:53:52.378Z,91.00
2017-09-19T22:56:54.804Z,91.00
2017-09-19T22:59:56.731Z,91.00
2017-09-19T23:02:59.826Z,91.30
2017-09-19T23:06:01.880Z,91.30
2017-09-19T23:09:04.240Z,91.40
2017-09-19T23:12:06.180Z,91.40
2017-09-19T23:15:08.600Z,91.50
2017-09-19T23:18:11.416Z,91.60
2017-09-19T23:21:13.776Z,91.60
2017-09-19T23:24:15.736Z,91.70
2017-09-19T23:27:18.085Z,91.70
2017-09-19T23:30:20.031Z,91.80
2017-09-19T23:33:22.328Z,91.80
2017-09-19T23:36:24.260Z,91.80
2017-09-19T23:39:26.613Z,91.80
2017-09-19T23:42:28.558Z,91.80
2017-09-19T23:45:30.912Z,91.80
2017-09-19T23:48:32.949Z,91.80
2017-09-19T23:51:35.324Z,91.70
2017-09-19T23:54:37.282Z,91.80
2017-09-19T23:57:40.318Z,91.80
